Aviation Digital Data Service (ADDS)

Output produced by METARs form (1131 UTC 25 June 2019)
found at http://www.aviationweather.gov/metar/data/
 
Forecast for: CYYJ (VICTORIA INTL AR, BC, CA)
Text: TAF CYYJ 250540Z 2506/2606 VRB03KT P6SM FEW030 BKN220
Forecast period: 0600 UTC 25 June 2019 to 0000 UTC 26 June 2019
Forecast type: FROM: standard forecast or significant change
Winds: variable direction winds at 3 MPH (3 knots; 1.5 m/s)
Visibility: 6 or more miles 10+ km)
Ceiling: 22000 feet AGL
Clouds: few clouds at 3000 feet AGL
broken clouds at 22000 feet AGL
Weather: no significant weather forecast for this period
Text: FM260000 13008KT P6SM BKN150 RMK NXT FCST BY 251200Z
Forecast period: 0000 to 0600 UTC 26 June 2019
Forecast type: FROM: standard forecast or significant change
Winds: from the SE (130 degrees) at 9 MPH (8 knots; 4.1 m/s)
Visibility: 6 or more miles 10+ km)
Ceiling: 15000 feet AGL
Clouds: broken clouds at 15000 feet AGL
Weather: no significant weather forecast for this period